createdAt,value
2023-03-26T00:02:29.864Z,98751.30
2023-03-26T00:05:03.034Z,98742.95
2023-03-26T00:07:35.136Z,98741.89
2023-03-26T00:10:08.498Z,98742.08
2023-03-26T00:12:40.533Z,98744.49
2023-03-26T00:15:14.098Z,98742.65
2023-03-26T00:17:46.565Z,98743.15
2023-03-26T00:20:18.907Z,98743.64
2023-03-26T00:22:51.651Z,98744.27
2023-03-26T00:25:24.953Z,98740.62
2023-03-26T00:27:57.472Z,98734.35
2023-03-26T00:30:29.521Z,98730.86
2023-03-26T00:33:01.849Z,98727.38
2023-03-26T00:35:36.807Z,98724.76
2023-03-26T00:38:08.990Z,98719.50
2023-03-26T00:40:44.308Z,98716.67
2023-03-26T00:43:19.939Z,98714.05
2023-03-26T00:45:54.564Z,98706.96
2023-03-26T00:48:38.297Z,98707.59
2023-03-26T00:51:18.689Z,98707.39
2023-03-26T00:53:52.058Z,98706.20
2023-03-26T00:56:24.404Z,98707.95
2023-03-26T00:58:57.872Z,98708.66
2023-03-26T01:01:31.846Z,98707.11
2023-03-26T01:04:27.885Z,98713.43
2023-03-26T01:07:07.645Z,98709.81
2023-03-26T01:09:43.019Z,98717.67
2023-03-26T01:12:19.819Z,98714.08
2023-03-26T01:14:54.535Z,98703.27
2023-03-26T01:17:34.320Z,98707.59
2023-03-26T01:20:15.218Z,98706.73
2023-03-26T01:22:52.304Z,98709.80
2023-03-26T01:25:27.932Z,98701.55
2023-03-26T01:28:01.137Z,98704.85
2023-03-26T01:30:42.517Z,98701.64
2023-03-26T01:33:23.252Z,98700.37
2023-03-26T01:36:00.165Z,98697.05
2023-03-26T01:38:40.516Z,98701.71
2023-03-26T01:41:15.615Z,98707.89
2023-03-26T01:43:53.005Z,98706.16
2023-03-26T01:46:27.631Z,98693.63
2023-03-26T01:48:59.772Z,98691.38
2023-03-26T01:51:34.149Z,98695.52
2023-03-26T01:54:10.008Z,98698.63
2023-03-26T01:56:54.922Z,98693.13
2023-03-26T01:59:46.455Z,98689.67
2023-03-26T02:02:23.013Z,98688.30
2023-03-26T02:05:01.672Z,98686.77
2023-03-26T02:07:41.073Z,98673.08
2023-03-26T02:10:17.474Z,98679.60
2023-03-26T02:12:51.980Z,98684.43
2023-03-26T02:15:24.699Z,98677.75
2023-03-26T02:17:56.732Z,98681.70
2023-03-26T02:20:30.419Z,98682.39
2023-03-26T02:23:02.489Z,98678.62
2023-03-26T02:25:37.064Z,98689.75
2023-03-26T02:28:09.247Z,98696.77
2023-03-26T02:30:41.522Z,98688.20
2023-03-26T02:33:15.495Z,98689.77
2023-03-26T02:35:47.632Z,98693.88
2023-03-26T02:38:19.816Z,98696.49
2023-03-26T02:40:51.893Z,98693.64
2023-03-26T02:43:25.240Z,98691.27
2023-03-26T02:45:57.999Z,98681.19
2023-03-26T02:48:49.972Z,98680.00
2023-03-26T02:51:29.851Z,98678.83
2023-03-26T02:54:08.727Z,98674.92
2023-03-26T02:56:46.593Z,98671.02
2023-03-26T02:59:41.767Z,98671.19
2023-03-26T03:02:39.077Z,98669.48
2023-03-26T03:05:38.215Z,98666.75
2023-03-26T03:08:29.957Z,98669.13
2023-03-26T03:11:24.698Z,98673.56
2023-03-26T03:13:57.413Z,98673.70
2023-03-26T03:16:32.639Z,98671.59
2023-03-26T03:19:09.800Z,98666.92
2023-03-26T03:21:44.078Z,98670.80
2023-03-26T03:24:18.727Z,98667.27
2023-03-26T03:26:58.127Z,98662.06
2023-03-26T03:29:42.549Z,98664.43
2023-03-26T03:32:35.523Z,98663.05
2023-03-26T03:35:10.214Z,98666.14
2023-03-26T03:37:42.833Z,98674.86
2023-03-26T03:40:15.699Z,98674.31
2023-03-26T03:42:48.501Z,98675.13
2023-03-26T03:45:26.593Z,98675.94
2023-03-26T03:48:22.038Z,98674.23
2023-03-26T03:50:54.187Z,98675.78
2023-03-26T03:53:40.750Z,98679.30
2023-03-26T03:56:14.904Z,98675.98
2023-03-26T03:59:10.329Z,98678.02
2023-03-26T04:01:46.839Z,98681.11
2023-03-26T04:04:26.991Z,98678.28
2023-03-26T04:07:10.365Z,98677.11
2023-03-26T04:10:06.840Z,98678.85
2023-03-26T04:12:58.262Z,98677.46
2023-03-26T04:15:47.439Z,98681.59
2023-03-26T04:18:20.527Z,98679.41
2023-03-26T04:20:54.736Z,98673.42
2023-03-26T04:23:32.083Z,98673.92
2023-03-26T04:26:19.944Z,98676.65
2023-03-26T04:29:27.960Z,98683.09
2023-03-26T04:32:06.583Z,98676.58
2023-03-26T04:34:38.894Z,98670.95
2023-03-26T04:37:24.643Z,98667.36
2023-03-26T04:40:10.545Z,98665.77
2023-03-26T04:43:02.472Z,98671.02
2023-03-26T04:45:58.056Z,98680.33
2023-03-26T04:48:31.959Z,98682.64
2023-03-26T04:51:07.294Z,98687.16
2023-03-26T04:53:39.673Z,98684.54
2023-03-26T04:56:45.951Z,98680.59
2023-03-26T04:59:35.104Z,98679.17
2023-03-26T05:02:09.757Z,98680.83
2023-03-26T05:04:51.546Z,98680.29
2023-03-26T05:07:25.003Z,98679.77
2023-03-26T05:09:59.444Z,98681.09
2023-03-26T05:12:44.125Z,98683.18
2023-03-26T05:15:23.251Z,98682.17
2023-03-26T05:18:13.824Z,98687.70
2023-03-26T05:20:48.041Z,98694.15
2023-03-26T05:23:20.224Z,98694.45
2023-03-26T05:26:07.781Z,98695.23
2023-03-26T05:28:41.044Z,98696.63
2023-03-26T05:31:28.082Z,98691.80
2023-03-26T05:34:01.580Z,98690.75
2023-03-26T05:36:33.858Z,98690.42
2023-03-26T05:39:37.354Z,98686.73
2023-03-26T05:42:28.059Z,98682.51
2023-03-26T05:45:17.179Z,98679.67
2023-03-26T05:47:51.504Z,98675.77
2023-03-26T05:50:24.295Z,98670.71
2023-03-26T05:52:58.017Z,98671.32
2023-03-26T05:56:08.702Z,98678.77
2023-03-26T05:59:00.319Z,98677.64
2023-03-26T06:01:51.463Z,98682.81
2023-03-26T06:04:42.762Z,98681.79
2023-03-26T06:07:50.767Z,98681.27
2023-03-26T06:10:24.897Z,98684.88
2023-03-26T06:12:57.276Z,98687.27
2023-03-26T06:15:29.553Z,98687.99
2023-03-26T06:18:06.851Z,98689.77
2023-03-26T06:20:57.754Z,98697.36
2023-03-26T06:23:52.729Z,98691.23
2023-03-26T06:26:53.885Z,98694.69
2023-03-26T06:29:26.427Z,98696.91
2023-03-26T06:32:12.372Z,98702.73
2023-03-26T06:34:56.200Z,98706.58
2023-03-26T06:37:28.342Z,98703.73
2023-03-26T06:40:07.099Z,98706.04
2023-03-26T06:43:09.187Z,98708.63
2023-03-26T06:46:06.732Z,98708.52
2023-03-26T06:49:08.266Z,98707.52
2023-03-26T06:51:59.667Z,98707.06
2023-03-26T06:54:50.659Z,98707.66
2023-03-26T06:57:52.819Z,98711.39
2023-03-26T07:00:47.769Z,98712.69
2023-03-26T07:03:49.448Z,98710.05
2023-03-26T07:06:44.734Z,98707.36
2023-03-26T07:09:35.421Z,98708.77
2023-03-26T07:12:26.261Z,98706.41
2023-03-26T07:15:32.127Z,98710.92
2023-03-26T07:18:31.070Z,98721.11
2023-03-26T07:21:04.950Z,98715.50
2023-03-26T07:23:39.338Z,98722.42
2023-03-26T07:26:37.403Z,98718.98
2023-03-26T07:29:25.777Z,98716.41
2023-03-26T07:32:21.710Z,98715.95
2023-03-26T07:35:20.510Z,98717.20
2023-03-26T07:38:31.437Z,98717.42
2023-03-26T07:41:32.612Z,98714.58
2023-03-26T07:44:36.146Z,98711.56
2023-03-26T07:47:32.764Z,98713.54
2023-03-26T07:50:19.691Z,98713.93
2023-03-26T07:53:05.711Z,98701.24
2023-03-26T07:55:54.987Z,98702.46
2023-03-26T07:59:05.093Z,98698.68
2023-03-26T08:02:16.936Z,98698.34
2023-03-26T08:05:03.174Z,98698.15
2023-03-26T08:08:09.665Z,98694.17
2023-03-26T08:11:07.346Z,98692.61
2023-03-26T08:14:01.555Z,98694.84
2023-03-26T08:16:43.247Z,98693.14
2023-03-26T08:19:33.696Z,98688.54
2023-03-26T08:22:13.131Z,98686.31
2023-03-26T08:24:59.477Z,98684.60
2023-03-26T08:27:39.290Z,98686.16
2023-03-26T08:30:18.905Z,98689.08
2023-03-26T08:32:56.872Z,98687.52
2023-03-26T08:35:31.070Z,98683.04
2023-03-26T08:38:03.216Z,98678.40
2023-03-26T08:41:08.198Z,98684.05
2023-03-26T08:44:06.655Z,98686.08
2023-03-26T08:47:09.219Z,98699.61
2023-03-26T08:50:04.715Z,98701.60
2023-03-26T08:53:03.872Z,98712.02
2023-03-26T08:55:56.641Z,98707.81
2023-03-26T08:59:01.155Z,98700.93
2023-03-26T09:02:06.395Z,98700.74
2023-03-26T09:05:20.358Z,98697.88
2023-03-26T09:08:19.040Z,98692.46
2023-03-26T09:11:09.195Z,98692.20
2023-03-26T09:14:15.596Z,98684.37
2023-03-26T09:17:21.325Z,98678.75
2023-03-26T09:20:34.729Z,98676.21
2023-03-26T09:23:35.139Z,98672.09
2023-03-26T09:26:28.074Z,98670.23
2023-03-26T09:29:26.925Z,98675.92
2023-03-26T09:32:16.235Z,98679.36
2023-03-26T09:35:13.227Z,98674.37
2023-03-26T09:38:00.831Z,98669.38
2023-03-26T09:43:54.539Z,98675.58
2023-03-26T09:46:38.836Z,98678.86
2023-03-26T09:49:37.090Z,98676.62
2023-03-26T09:52:28.025Z,98674.73
2023-03-26T09:55:28.334Z,98674.02
2023-03-26T09:58:31.558Z,98671.29
2023-03-26T10:01:12.672Z,98668.02
2023-03-26T10:03:59.806Z,98665.80
2023-03-26T10:06:53.241Z,98662.86
2023-03-26T10:09:53.462Z,98660.09
2023-03-26T10:12:33.491Z,98658.70
2023-03-26T10:15:25.086Z,98654.05
2023-03-26T10:18:27.539Z,98660.59
2023-03-26T10:21:09.607Z,98658.69
2023-03-26T10:24:01.683Z,98657.48
2023-03-26T10:27:10.192Z,98659.90
2023-03-26T10:30:08.668Z,98660.77
2023-03-26T10:32:53.443Z,98660.94
2023-03-26T10:35:37.625Z,98662.32
2023-03-26T10:38:19.734Z,98653.55
2023-03-26T10:41:00.830Z,98647.58
2023-03-26T10:44:14.398Z,98641.05
2023-03-26T10:47:15.348Z,98635.18
2023-03-26T10:50:23.715Z,98626.90
2023-03-26T10:53:00.570Z,98621.69
2023-03-26T10:55:37.902Z,98613.91
2023-03-26T10:58:19.648Z,98606.45
2023-03-26T11:01:00.704Z,98603.61
2023-03-26T11:03:52.141Z,98603.39
2023-03-26T11:06:37.435Z,98604.02
2023-03-26T11:09:26.440Z,98599.85
2023-03-26T11:12:26.507Z,98593.77
2023-03-26T11:15:08.889Z,98593.54
2023-03-26T11:17:53.309Z,98591.42
2023-03-26T11:20:34.124Z,98588.66
2023-03-26T11:23:19.995Z,98587.89
2023-03-26T11:26:10.075Z,98585.10
2023-03-26T11:29:31.546Z,98583.23
2023-03-26T11:32:10.536Z,98581.38
2023-03-26T11:34:44.150Z,98575.93
2023-03-26T11:37:21.787Z,98579.13
2023-03-26T11:39:57.823Z,98578.14
2023-03-26T11:42:31.493Z,98576.48
2023-03-26T11:45:08.174Z,98574.64
2023-03-26T11:47:46.689Z,98570.15
2023-03-26T11:50:24.951Z,98567.38
2023-03-26T11:53:01.475Z,98564.59
2023-03-26T11:55:35.901Z,98565.25
2023-03-26T11:58:18.974Z,98552.34
2023-03-26T12:00:53.088Z,98547.68
2023-03-26T12:03:25.964Z,98544.39
2023-03-26T12:06:03.007Z,98535.08
2023-03-26T12:08:40.911Z,98536.45
2023-03-26T12:11:16.269Z,98529.33
2023-03-26T12:13:56.420Z,98528.77
2023-03-26T12:16:29.404Z,98519.88
2023-03-26T12:19:05.613Z,98519.21
2023-03-26T12:21:48.611Z,98514.42
2023-03-26T12:24:34.979Z,98512.33
2023-03-26T12:27:28.467Z,98512.87
2023-03-26T12:30:13.989Z,98506.59
2023-03-26T12:32:47.233Z,98508.55
2023-03-26T12:35:26.895Z,98506.64
2023-03-26T12:38:15.673Z,98503.23
2023-03-26T12:40:49.009Z,98500.10
2023-03-26T12:44:48.825Z,98495.64
2023-03-26T12:47:56.096Z,98491.20
2023-03-26T12:49:22.405Z,98483.89
2023-03-26T12:52:11.423Z,98482.27
2023-03-26T12:54:51.266Z,98471.77
2023-03-26T12:57:26.644Z,98465.14
2023-03-26T13:00:14.499Z,98464.69
2023-03-26T13:03:05.899Z,98458.64
2023-03-26T13:05:52.472Z,98449.42
2023-03-26T13:08:48.226Z,98440.52
2023-03-26T13:11:29.524Z,98437.13
2023-03-26T13:14:15.704Z,98437.13
2023-03-26T13:16:55.717Z,98437.38
2023-03-26T13:19:34.524Z,98438.52
2023-03-26T13:22:19.345Z,98436.18
2023-03-26T13:25:01.118Z,98435.16
2023-03-26T13:27:45.708Z,98436.66
2023-03-26T13:30:27.374Z,98430.78
2023-03-26T13:33:24.871Z,98429.76
2023-03-26T13:36:19.264Z,98423.85
2023-03-26T13:39:11.118Z,98420.39
2023-03-26T13:41:58.623Z,98420.65
2023-03-26T13:44:39.924Z,98420.77
2023-03-26T13:47:15.509Z,98416.88
2023-03-26T13:49:53.029Z,98415.42
2023-03-26T13:52:29.303Z,98415.60
2023-03-26T13:55:19.382Z,98415.45
2023-03-26T13:57:57.872Z,98406.17
2023-03-26T14:00:38.498Z,98404.63
2023-03-26T14:03:20.284Z,98408.80
2023-03-26T14:05:57.231Z,98405.98
2023-03-26T14:08:34.529Z,98404.60
2023-03-26T14:11:14.105Z,98406.45
2023-03-26T14:13:53.732Z,98404.56
2023-03-26T14:16:30.805Z,98398.50
2023-03-26T14:19:16.370Z,98396.13
2023-03-26T14:22:03.782Z,98395.56
2023-03-26T14:24:54.800Z,98390.52
2023-03-26T14:27:45.238Z,98383.73
2023-03-26T14:30:50.707Z,98379.13
2023-03-26T14:33:44.062Z,98376.05
2023-03-26T14:36:30.918Z,98371.65
2023-03-26T14:39:32.689Z,98373.70
2023-03-26T14:42:16.425Z,98371.14
2023-03-26T14:45:20.843Z,98371.09
2023-03-26T14:48:27.916Z,98367.89
2023-03-26T14:51:11.777Z,98370.18
2023-03-26T14:53:49.683Z,98371.48
2023-03-26T14:56:52.052Z,98369.13
2023-03-26T15:00:15.395Z,98365.29
2023-03-26T15:03:26.304Z,98359.17
2023-03-26T15:06:26.560Z,98355.20
2023-03-26T15:09:46.447Z,98349.38
2023-03-26T15:12:33.044Z,98344.27
2023-03-26T15:15:42.161Z,98346.64
2023-03-26T15:18:47.781Z,98345.59
2023-03-26T15:21:56.773Z,98347.31
2023-03-26T15:24:59.364Z,98345.59
2023-03-26T15:27:52.179Z,98344.08
2023-03-26T15:30:49.329Z,98345.64
2023-03-26T15:33:56.964Z,98343.90
2023-03-26T15:37:02.598Z,98338.64
2023-03-26T15:40:19.204Z,98336.07
2023-03-26T15:43:02.037Z,98330.34
2023-03-26T15:45:39.250Z,98329.15
2023-03-26T15:48:53.666Z,98328.63
2023-03-26T15:51:47.117Z,98321.66
2023-03-26T15:54:27.963Z,98320.60
2023-03-26T15:57:20.757Z,98319.95
2023-03-26T16:00:12.753Z,98319.20
2023-03-26T16:02:53.869Z,98321.44
2023-03-26T16:05:40.729Z,98315.05
2023-03-26T16:08:24.622Z,98314.23
2023-03-26T16:10:59.259Z,98312.06
2023-03-26T16:13:36.277Z,98315.54
2023-03-26T16:16:41.785Z,98316.58
2023-03-26T16:19:50.359Z,98317.31
2023-03-26T16:22:56.199Z,98312.04
2023-03-26T16:25:35.503Z,98314.95
2023-03-26T16:28:28.469Z,98317.67
2023-03-26T16:31:38.405Z,98319.05
2023-03-26T16:34:31.488Z,98327.73
2023-03-26T16:37:28.644Z,98327.54
2023-03-26T16:40:30.398Z,98320.31
2023-03-26T16:43:14.559Z,98325.38
2023-03-26T16:45:56.468Z,98323.78
2023-03-26T16:48:38.228Z,98322.05
2023-03-26T16:51:17.322Z,98317.36
2023-03-26T16:53:57.950Z,98321.61
2023-03-26T16:56:38.862Z,98319.47
2023-03-26T16:59:36.289Z,98322.13
2023-03-26T17:02:22.362Z,98322.02
2023-03-26T17:05:01.436Z,98322.41
2023-03-26T17:07:40.068Z,98320.89
2023-03-26T17:10:23.782Z,98321.11
2023-03-26T17:13:02.916Z,98322.85
2023-03-26T17:15:45.076Z,98321.33
2023-03-26T17:18:32.359Z,98323.61
2023-03-26T17:21:12.254Z,98332.60
2023-03-26T17:24:04.188Z,98339.84
2023-03-26T17:26:49.891Z,98334.86
2023-03-26T17:29:40.952Z,98339.01
2023-03-26T17:32:15.263Z,98344.02
2023-03-26T17:35:00.946Z,98340.77
2023-03-26T17:37:41.132Z,98345.76
2023-03-26T17:40:54.855Z,98343.19
2023-03-26T17:43:40.471Z,98341.33
2023-03-26T17:46:32.046Z,98341.69
2023-03-26T17:49:09.747Z,98338.42
2023-03-26T17:51:51.634Z,98337.94
2023-03-26T17:54:30.419Z,98333.97
2023-03-26T17:57:07.795Z,98336.39
2023-03-26T17:59:42.469Z,98342.58
2023-03-26T18:02:19.937Z,98345.17
2023-03-26T18:04:54.995Z,98345.88
2023-03-26T18:08:09.577Z,98342.94
2023-03-26T18:11:02.069Z,98348.62
2023-03-26T18:13:58.750Z,98352.59
2023-03-26T18:16:37.918Z,98349.31
2023-03-26T18:19:19.580Z,98349.14
2023-03-26T18:21:54.976Z,98344.68
2023-03-26T18:24:31.590Z,98350.54
2023-03-26T18:27:08.773Z,98352.42
2023-03-26T18:29:46.474Z,98350.37
2023-03-26T18:32:23.781Z,98351.40
2023-03-26T18:35:00.907Z,98348.30
2023-03-26T18:37:39.420Z,98348.64
2023-03-26T18:40:19.428Z,98351.58
2023-03-26T18:42:53.651Z,98350.71
2023-03-26T18:45:30.177Z,98348.31
2023-03-26T18:48:06.440Z,98344.54
2023-03-26T18:50:41.655Z,98340.41
2023-03-26T18:53:20.858Z,98342.82
2023-03-26T18:55:54.022Z,98341.77
2023-03-26T18:58:30.385Z,98338.86
2023-03-26T19:01:05.050Z,98339.55
2023-03-26T19:03:40.566Z,98334.58
2023-03-26T19:06:15.994Z,98332.52
2023-03-26T19:08:50.097Z,98332.15
2023-03-26T19:11:23.533Z,98331.65
2023-03-26T19:14:08.002Z,98328.57
2023-03-26T19:16:43.847Z,98324.62
2023-03-26T19:19:23.171Z,98317.73
2023-03-26T19:21:57.895Z,98314.64
2023-03-26T19:24:32.047Z,98314.81
2023-03-26T19:27:04.985Z,98312.56
2023-03-26T19:29:38.540Z,98307.41
2023-03-26T19:32:21.853Z,98301.06
2023-03-26T19:34:55.132Z,98294.17
2023-03-26T19:37:30.102Z,98296.42
2023-03-26T19:40:14.439Z,98291.78
2023-03-26T19:42:47.767Z,98285.77
2023-03-26T19:45:25.844Z,98280.64
2023-03-26T19:48:07.729Z,98274.45
2023-03-26T19:50:57.766Z,98274.64
2023-03-26T19:53:37.384Z,98275.15
2023-03-26T19:56:18.865Z,98277.37
2023-03-26T19:58:51.504Z,98272.39
2023-03-26T20:01:26.945Z,98269.32
2023-03-26T20:04:01.736Z,98272.23
2023-03-26T20:06:43.216Z,98267.40
2023-03-26T20:09:16.493Z,98269.64
2023-03-26T20:11:48.668Z,98269.29
2023-03-26T20:14:26.278Z,98270.15
2023-03-26T20:16:58.905Z,98263.29
2023-03-26T20:19:31.061Z,98262.77
2023-03-26T20:22:03.140Z,98255.56
2023-03-26T20:24:36.617Z,98255.58
2023-03-26T20:27:08.806Z,98250.59
2023-03-26T20:29:41.382Z,98246.30
2023-03-26T20:32:23.610Z,98244.24
2023-03-26T20:34:57.814Z,98235.14
2023-03-26T20:37:29.928Z,98235.65
2023-03-26T20:40:02.037Z,98232.73
2023-03-26T20:42:35.942Z,98231.88
2023-03-26T20:45:18.095Z,98221.91
2023-03-26T20:47:51.444Z,98218.83
2023-03-26T20:50:24.582Z,98216.06
2023-03-26T20:52:56.814Z,98216.59
2023-03-26T20:55:29.426Z,98214.36
2023-03-26T20:58:01.657Z,98216.75
2023-03-26T21:00:34.044Z,98211.41
2023-03-26T21:03:06.227Z,98209.70
2023-03-26T21:05:39.381Z,98208.50
2023-03-26T21:08:18.293Z,98208.67
2023-03-26T21:10:51.410Z,98209.71
2023-03-26T21:13:33.633Z,98210.58
2023-03-26T21:16:04.496Z,98212.46
2023-03-26T21:18:37.634Z,98217.96
2023-03-26T21:21:25.174Z,98220.70
2023-03-26T21:24:06.469Z,98221.05
2023-03-26T21:26:45.009Z,98222.26
2023-03-26T21:29:19.190Z,98220.70
2023-03-26T21:31:54.008Z,98220.19
2023-03-26T21:34:29.346Z,98216.56
2023-03-26T21:37:02.731Z,98211.75
2023-03-26T21:39:35.660Z,98209.86
2023-03-26T21:42:09.145Z,98204.02
2023-03-26T21:44:42.654Z,98196.25
2023-03-26T21:47:16.088Z,98195.05
2023-03-26T21:49:49.400Z,98196.22
2023-03-26T21:52:22.747Z,98198.28
2023-03-26T21:54:58.177Z,98192.79
2023-03-26T21:57:45.871Z,98190.91
2023-03-26T22:00:20.799Z,98181.15
2023-03-26T22:03:08.408Z,98178.42
2023-03-26T22:05:48.658Z,98173.63
2023-03-26T22:08:28.614Z,98171.07
2023-03-26T22:11:00.750Z,98173.83
2023-03-26T22:13:32.817Z,98178.14
2023-03-26T22:16:05.298Z,98185.36
2023-03-26T22:18:37.977Z,98187.07
2023-03-26T22:21:10.582Z,98188.27
2023-03-26T22:23:42.619Z,98189.29
2023-03-26T22:26:14.586Z,98189.98
2023-03-26T22:28:47.006Z,98196.00
2023-03-26T22:31:19.352Z,98194.63
2023-03-26T22:33:51.913Z,98195.16
2023-03-26T22:36:25.409Z,98192.91
2023-03-26T22:38:58.310Z,98194.98
2023-03-26T22:41:30.702Z,98191.88
2023-03-26T22:44:16.822Z,98182.27
2023-03-26T22:46:52.521Z,98176.27
2023-03-26T22:49:27.569Z,98171.64
2023-03-26T22:51:59.692Z,98169.06
2023-03-26T22:54:31.795Z,98172.84
2023-03-26T22:57:04.177Z,98169.40
2023-03-26T22:59:36.284Z,98168.04
2023-03-26T23:02:10.030Z,98164.95
2023-03-26T23:04:42.938Z,98161.51
2023-03-26T23:07:15.717Z,98161.01
2023-03-26T23:09:47.781Z,98161.66
2023-03-26T23:12:19.731Z,98157.39
2023-03-26T23:14:53.143Z,98156.70
2023-03-26T23:17:25.973Z,98155.16
2023-03-26T23:19:57.974Z,98150.69
2023-03-26T23:22:30.037Z,98149.66
2023-03-26T23:25:02.028Z,98149.14
2023-03-26T23:27:34.202Z,98150.52
2023-03-26T23:30:11.012Z,98147.61
2023-03-26T23:32:43.342Z,98147.77
2023-03-26T23:35:15.704Z,98141.92
2023-03-26T23:37:51.107Z,98142.61
2023-03-26T23:40:23.129Z,98141.75
2023-03-26T23:42:55.291Z,98145.69
2023-03-26T23:45:27.817Z,98149.47
2023-03-26T23:47:59.960Z,98152.59
2023-03-26T23:50:32.010Z,98154.13
2023-03-26T23:53:04.125Z,98147.95
2023-03-26T23:55:36.734Z,98151.91
2023-03-26T23:58:08.924Z,98153.10
